Cubero, New Mexico
Current Conditions -  °F | °C
As of 2:16 PM on Friday 24 Oct 2014 (Local Time) from KGNT Reporting Station
Clear Clear  
Wind Chill: 75°   Ceiling: Unl
Heat Index: 75°   Visibility: 10mi
Dew Point: 27°   Wind: 5mph
Humidity: 17%   Direction: 10°N
Pressure: 30.34"   Gusts: NA
Location:  35.08°N, 107.52°W
Report Text: KGNT 242016Z AUTO 01004KT 10SM CLR 24/M03 A3034 RMK AO2
Loading
Personal Weather Stations






























Interactive Weather Map
Tropical Storm Tracking
New forecast layout! Learn more

10-Day Weather Forecast

Advertisements
Track Severe Weather on mobile